sensor_id;sensor_type;location;lat;lon;timestamp;temperature;humidity
76759;DHT22;65701;45.588;5.186;2023-05-09T05:32:46;15.31;77.94
76759;DHT22;65701;45.588;5.186;2023-05-09T05:35:13;15.40;77.87
76759;DHT22;65701;45.588;5.186;2023-05-09T05:37:41;15.45;77.86
76759;DHT22;65701;45.588;5.186;2023-05-09T05:40:08;15.55;77.76
76759;DHT22;65701;45.588;5.186;2023-05-09T05:42:34;15.57;78.12
76759;DHT22;65701;45.588;5.186;2023-05-09T05:45:00;15.63;78.03
76759;DHT22;65701;45.588;5.186;2023-05-09T05:47:33;15.71;78.14
76759;DHT22;65701;45.588;5.186;2023-05-09T05:50:02;15.79;78.39
76759;DHT22;65701;45.588;5.186;2023-05-09T05:52:29;15.83;78.44
76759;DHT22;65701;45.588;5.186;2023-05-09T05:54:55;15.95;78.34
76759;DHT22;65701;45.588;5.186;2023-05-09T05:57:20;16.02;78.28
76759;DHT22;65701;45.588;5.186;2023-05-09T05:59:47;16.13;78.19
76759;DHT22;65701;45.588;5.186;2023-05-09T06:02:13;16.20;78.27
76759;DHT22;65701;45.588;5.186;2023-05-09T15:31:44;17.58;78.50
76759;DHT22;65701;45.588;5.186;2023-05-09T15:34:10;17.55;78.72
76759;DHT22;65701;45.588;5.186;2023-05-09T15:36:35;17.57;78.78
76759;DHT22;65701;45.588;5.186;2023-05-09T15:39:01;17.55;79.04
76759;DHT22;65701;45.588;5.186;2023-05-09T15:41:26;17.55;78.89
76759;DHT22;65701;45.588;5.186;2023-05-09T15:43:52;17.55;79.53
76759;DHT22;65701;45.588;5.186;2023-05-09T15:46:18;17.61;79.00
76759;DHT22;65701;45.588;5.186;2023-05-09T15:48:43;17.60;79.33
76759;DHT22;65701;45.588;5.186;2023-05-09T15:51:09;17.61;79.56
76759;DHT22;65701;45.588;5.186;2023-05-09T15:53:35;17.61;79.24
76759;DHT22;65701;45.588;5.186;2023-05-09T15:56:01;17.64;79.72
76759;DHT22;65701;45.588;5.186;2023-05-09T15:58:29;17.58;79.56
76759;DHT22;65701;45.588;5.186;2023-05-09T16:00:54;17.65;79.07
76759;DHT22;65701;45.588;5.186;2023-05-09T16:03:20;17.60;79.21
76759;DHT22;65701;45.588;5.186;2023-05-09T16:05:46;17.65;79.87
76759;DHT22;65701;45.588;5.186;2023-05-09T16:08:11;17.65;79.36
76759;DHT22;65701;45.588;5.186;2023-05-09T16:10:37;17.65;78.97
76759;DHT22;65701;45.588;5.186;2023-05-09T16:13:03;17.64;79.33
76759;DHT22;65701;45.588;5.186;2023-05-09T16:15:28;17.64;79.49
76759;DHT22;65701;45.588;5.186;2023-05-09T16:17:54;17.61;79.93
76759;DHT22;65701;45.588;5.186;2023-05-09T16:20:19;17.62;80.14
76759;DHT22;65701;45.588;5.186;2023-05-09T16:22:45;17.64;80.03
76759;DHT22;65701;45.588;5.186;2023-05-09T16:25:11;17.62;79.94
76759;DHT22;65701;45.588;5.186;2023-05-09T16:27:37;17.62;79.87
76759;DHT22;65701;45.588;5.186;2023-05-09T16:30:05;17.62;80.08
76759;DHT22;65701;45.588;5.186;2023-05-09T16:32:31;17.65;80.22
76759;DHT22;65701;45.588;5.186;2023-05-09T16:34:58;17.65;80.11
76759;DHT22;65701;45.588;5.186;2023-05-09T16:37:24;17.69;79.74
76759;DHT22;65701;45.588;5.186;2023-05-09T16:39:50;17.72;79.83
76759;DHT22;65701;45.588;5.186;2023-05-09T16:42:16;17.74;79.47
76759;DHT22;65701;45.588;5.186;2023-05-09T16:44:42;17.75;79.20
76759;DHT22;65701;45.588;5.186;2023-05-09T16:47:08;17.79;79.19
76759;DHT22;65701;45.588;5.186;2023-05-09T16:49:34;17.81;78.82
76759;DHT22;65701;45.588;5.186;2023-05-09T16:51:59;17.86;78.59
76759;DHT22;65701;45.588;5.186;2023-05-09T16:54:25;17.83;78.86
76759;DHT22;65701;45.588;5.186;2023-05-09T16:56:50;17.85;79.09
76759;DHT22;65701;45.588;5.186;2023-05-09T16:59:16;17.86;78.91
76759;DHT22;65701;45.588;5.186;2023-05-09T17:01:44;17.88;78.74
76759;DHT22;65701;45.588;5.186;2023-05-09T17:04:11;17.90;78.61
76759;DHT22;65701;45.588;5.186;2023-05-09T17:06:37;17.89;78.34
76759;DHT22;65701;45.588;5.186;2023-05-09T17:09:03;17.89;78.44
76759;DHT22;65701;45.588;5.186;2023-05-09T17:11:29;17.92;78.04
76759;DHT22;65701;45.588;5.186;2023-05-09T17:13:55;17.93;77.90
76759;DHT22;65701;45.588;5.186;2023-05-09T17:16:22;17.90;77.83
76759;DHT22;65701;45.588;5.186;2023-05-09T17:18:49;17.90;77.56
76759;DHT22;65701;45.588;5.186;2023-05-09T17:21:16;17.92;77.60
76759;DHT22;65701;45.588;5.186;2023-05-09T17:23:43;17.93;77.59
76759;DHT22;65701;45.588;5.186;2023-05-09T17:26:09;17.93;77.62
76759;DHT22;65701;45.588;5.186;2023-05-09T17:28:35;17.92;77.54
76759;DHT22;65701;45.588;5.186;2023-05-09T17:31:01;17.93;77.51
76759;DHT22;65701;45.588;5.186;2023-05-09T17:33:27;17.92;77.67
76759;DHT22;65701;45.588;5.186;2023-05-09T17:35:53;17.90;77.46
76759;DHT22;65701;45.588;5.186;2023-05-09T17:38:19;17.90;77.35
76759;DHT22;65701;45.588;5.186;2023-05-09T17:40:46;17.90;77.40
76759;DHT22;65701;45.588;5.186;2023-05-09T17:43:12;17.89;77.60
76759;DHT22;65701;45.588;5.186;2023-05-09T17:45:39;17.89;77.63
76759;DHT22;65701;45.588;5.186;2023-05-09T17:48:07;17.88;77.66
76759;DHT22;65701;45.588;5.186;2023-05-09T17:50:33;17.83;78.01
76759;DHT22;65701;45.588;5.186;2023-05-09T17:52:58;17.83;78.21
76759;DHT22;65701;45.588;5.186;2023-05-09T17:55:24;17.83;77.93
76759;DHT22;65701;45.588;5.186;2023-05-09T17:57:50;17.79;78.39
76759;DHT22;65701;45.588;5.186;2023-05-09T18:00:17;17.74;78.65
76759;DHT22;65701;45.588;5.186;2023-05-09T18:02:43;17.75;78.97
76759;DHT22;65701;45.588;5.186;2023-05-09T18:05:09;17.72;79.01
76759;DHT22;65701;45.588;5.186;2023-05-09T18:07:38;17.74;79.03
76759;DHT22;65701;45.588;5.186;2023-05-09T18:10:04;17.68;79.11
76759;DHT22;65701;45.588;5.186;2023-05-09T18:12:30;17.67;79.67
76759;DHT22;65701;45.588;5.186;2023-05-09T18:14:58;17.62;79.81
76759;DHT22;65701;45.588;5.186;2023-05-09T18:17:24;17.55;80.41
76759;DHT22;65701;45.588;5.186;2023-05-09T18:23:12;17.44;78.09
76759;DHT22;65701;45.588;5.186;2023-05-09T18:25:39;17.38;77.76
76759;DHT22;65701;45.588;5.186;2023-05-09T18:28:06;17.37;77.67
76759;DHT22;65701;45.588;5.186;2023-05-09T18:30:32;17.31;78.10
76759;DHT22;65701;45.588;5.186;2023-05-09T18:32:57;17.27;78.21
76759;DHT22;65701;45.588;5.186;2023-05-09T18:35:25;17.30;78.16
76759;DHT22;65701;45.588;5.186;2023-05-09T18:37:51;17.31;78.26
76759;DHT22;65701;45.588;5.186;2023-05-09T18:40:16;17.34;78.10
76759;DHT22;65701;45.588;5.186;2023-05-09T18:42:42;17.38;78.11
76759;DHT22;65701;45.588;5.186;2023-05-09T18:45:09;17.38;78.06
76759;DHT22;65701;45.588;5.186;2023-05-09T18:47:36;17.37;78.19
76759;DHT22;65701;45.588;5.186;2023-05-09T18:50:03;17.34;77.98
76759;DHT22;65701;45.588;5.186;2023-05-09T18:52:30;17.35;78.12
76759;DHT22;65701;45.588;5.186;2023-05-09T18:54:56;17.35;77.89
76759;DHT22;65701;45.588;5.186;2023-05-09T18:57:22;17.35;77.85
76759;DHT22;65701;45.588;5.186;2023-05-09T18:59:48;17.28;77.88
76759;DHT22;65701;45.588;5.186;2023-05-09T19:02:16;17.26;77.78
76759;DHT22;65701;45.588;5.186;2023-05-09T19:04:42;17.20;77.69
76759;DHT22;65701;45.588;5.186;2023-05-09T19:07:11;17.13;77.58
76759;DHT22;65701;45.588;5.186;2023-05-09T19:09:38;17.10;77.66
76759;DHT22;65701;45.588;5.186;2023-05-09T19:12:04;17.06;77.78
76759;DHT22;65701;45.588;5.186;2023-05-09T19:14:30;17.02;77.70
76759;DHT22;65701;45.588;5.186;2023-05-09T19:16:56;16.97;77.62
76759;DHT22;65701;45.588;5.186;2023-05-09T19:19:22;16.93;77.81
76759;DHT22;65701;45.588;5.186;2023-05-09T19:21:49;16.92;77.77
76759;DHT22;65701;45.588;5.186;2023-05-09T19:24:15;16.92;78.07
76759;DHT22;65701;45.588;5.186;2023-05-09T19:26:41;16.90;77.97
76759;DHT22;65701;45.588;5.186;2023-05-09T19:29:07;16.92;77.94
76759;DHT22;65701;45.588;5.186;2023-05-09T19:31:36;16.95;77.95
76759;DHT22;65701;45.588;5.186;2023-05-09T19:34:03;16.92;78.07
76759;DHT22;65701;45.588;5.186;2023-05-09T19:36:30;16.95;78.09
76759;DHT22;65701;45.588;5.186;2023-05-09T19:38:56;16.95;77.95
76759;DHT22;65701;45.588;5.186;2023-05-09T19:41:22;16.95;77.80
76759;DHT22;65701;45.588;5.186;2023-05-09T19:43:48;16.93;77.79
76759;DHT22;65701;45.588;5.186;2023-05-09T19:46:16;16.92;78.00
76759;DHT22;65701;45.588;5.186;2023-05-09T19:48:42;16.89;77.87
76759;DHT22;65701;45.588;5.186;2023-05-09T19:51:08;16.86;77.91
76759;DHT22;65701;45.588;5.186;2023-05-09T19:53:37;16.83;78.22
76759;DHT22;65701;45.588;5.186;2023-05-09T19:56:03;16.82;78.20
76759;DHT22;65701;45.588;5.186;2023-05-09T19:58:32;16.78;78.35
76759;DHT22;65701;45.588;5.186;2023-05-09T20:00:58;16.72;77.98
76759;DHT22;65701;45.588;5.186;2023-05-09T20:03:24;16.71;77.88
76759;DHT22;65701;45.588;5.186;2023-05-09T20:05:50;16.67;77.67
76759;DHT22;65701;45.588;5.186;2023-05-09T20:08:15;16.62;77.65
76759;DHT22;65701;45.588;5.186;2023-05-09T20:10:41;16.60;77.68
76759;DHT22;65701;45.588;5.186;2023-05-09T20:13:06;16.55;77.72
76759;DHT22;65701;45.588;5.186;2023-05-09T20:15:32;16.50;77.94
76759;DHT22;65701;45.588;5.186;2023-05-09T20:17:57;16.50;77.78
76759;DHT22;65701;45.588;5.186;2023-05-09T20:20:23;16.47;77.72
76759;DHT22;65701;45.588;5.186;2023-05-09T20:22:49;16.44;77.97
